sensor_id;sensor_type;location;lat;lon;timestamp;temperature;humidity
35085;SHT85;21267;51.032;6.998;2022-07-31T00:00:26;21.56;64.73
35085;SHT85;21267;51.032;6.998;2022-07-31T00:02:53;21.35;65.28
35085;SHT85;21267;51.032;6.998;2022-07-31T00:05:20;21.42;65.05
35085;SHT85;21267;51.032;6.998;2022-07-31T00:07:47;21.23;65.45
35085;SHT85;21267;51.032;6.998;2022-07-31T00:10:14;21.13;65.66
35085;SHT85;21267;51.032;6.998;2022-07-31T00:12:41;21.07;65.97
35085;SHT85;21267;51.032;6.998;2022-07-31T00:15:08;21.07;65.95
35085;SHT85;21267;51.032;6.998;2022-07-31T00:17:39;21.08;65.98
35085;SHT85;21267;51.032;6.998;2022-07-31T00:20:07;21.06;66.01
35085;SHT85;21267;51.032;6.998;2022-07-31T00:22:34;20.94;66.31
35085;SHT85;21267;51.032;6.998;2022-07-31T00:25:01;20.98;66.28
35085;SHT85;21267;51.032;6.998;2022-07-31T00:27:27;20.91;66.47
35085;SHT85;21267;51.032;6.998;2022-07-31T00:29:54;20.93;66.63
35085;SHT85;21267;51.032;6.998;2022-07-31T00:32:21;20.90;66.77
35085;SHT85;21267;51.032;6.998;2022-07-31T00:34:47;20.86;67.00
35085;SHT85;21267;51.032;6.998;2022-07-31T00:37:14;20.76;67.44
35085;SHT85;21267;51.032;6.998;2022-07-31T00:39:41;20.73;67.54
35085;SHT85;21267;51.032;6.998;2022-07-31T00:42:21;20.63;67.89
35085;SHT85;21267;51.032;6.998;2022-07-31T00:44:48;20.65;67.89
35085;SHT85;21267;51.032;6.998;2022-07-31T00:47:17;20.63;67.89
35085;SHT85;21267;51.032;6.998;2022-07-31T00:49:50;20.49;68.21
35085;SHT85;21267;51.032;6.998;2022-07-31T00:52:17;20.59;67.87
35085;SHT85;21267;51.032;6.998;2022-07-31T00:54:44;20.56;67.97
35085;SHT85;21267;51.032;6.998;2022-07-31T00:57:11;20.55;67.80
35085;SHT85;21267;51.032;6.998;2022-07-31T00:59:37;20.55;68.00
35085;SHT85;21267;51.032;6.998;2022-07-31T01:02:04;20.49;67.83
35085;SHT85;21267;51.032;6.998;2022-07-31T01:04:30;20.48;67.99
35085;SHT85;21267;51.032;6.998;2022-07-31T01:06:57;20.52;67.78
35085;SHT85;21267;51.032;6.998;2022-07-31T01:09:26;20.40;68.02
35085;SHT85;21267;51.032;6.998;2022-07-31T01:12:04;20.36;68.16
35085;SHT85;21267;51.032;6.998;2022-07-31T01:14:39;20.21;68.90
35085;SHT85;21267;51.032;6.998;2022-07-31T01:17:08;20.15;68.94
35085;SHT85;21267;51.032;6.998;2022-07-31T01:19:39;20.12;69.13
35085;SHT85;21267;51.032;6.998;2022-07-31T01:22:29;20.07;69.22
35085;SHT85;21267;51.032;6.998;2022-07-31T01:30:23;20.15;68.63
35085;SHT85;21267;51.032;6.998;2022-07-31T01:32:56;20.09;68.91
35085;SHT85;21267;51.032;6.998;2022-07-31T01:35:31;20.17;68.46
35085;SHT85;21267;51.032;6.998;2022-07-31T01:40:42;19.97;68.96
35085;SHT85;21267;51.032;6.998;2022-07-31T01:43:17;19.97;68.84
35085;SHT85;21267;51.032;6.998;2022-07-31T01:45:46;19.97;68.77
35085;SHT85;21267;51.032;6.998;2022-07-31T01:48:16;19.92;68.98
35085;SHT85;21267;51.032;6.998;2022-07-31T01:50:46;19.91;69.11
35085;SHT85;21267;51.032;6.998;2022-07-31T01:53:14;19.97;68.76
35085;SHT85;21267;51.032;6.998;2022-07-31T01:55:43;20.01;68.65
35085;SHT85;21267;51.032;6.998;2022-07-31T01:58:32;19.92;68.64
35085;SHT85;21267;51.032;6.998;2022-07-31T02:01:01;19.92;68.58
35085;SHT85;21267;51.032;6.998;2022-07-31T02:03:30;19.91;68.76
35085;SHT85;21267;51.032;6.998;2022-07-31T02:06:15;19.90;68.59
35085;SHT85;21267;51.032;6.998;2022-07-31T02:08:49;19.87;68.71
35085;SHT85;21267;51.032;6.998;2022-07-31T02:11:19;19.80;69.04
35085;SHT85;21267;51.032;6.998;2022-07-31T02:13:47;19.77;69.22
35085;SHT85;21267;51.032;6.998;2022-07-31T02:16:16;19.70;69.29
35085;SHT85;21267;51.032;6.998;2022-07-31T02:18:48;19.63;69.62
35085;SHT85;21267;51.032;6.998;2022-07-31T02:21:16;19.57;69.70
35085;SHT85;21267;51.032;6.998;2022-07-31T02:23:43;19.59;69.82
35085;SHT85;21267;51.032;6.998;2022-07-31T02:26:10;19.60;70.10
35085;SHT85;21267;51.032;6.998;2022-07-31T02:28:39;19.67;69.59
35085;SHT85;21267;51.032;6.998;2022-07-31T02:31:11;19.61;69.81
35085;SHT85;21267;51.032;6.998;2022-07-31T02:33:41;19.57;70.05
35085;SHT85;21267;51.032;6.998;2022-07-31T02:36:08;19.47;70.31
35085;SHT85;21267;51.032;6.998;2022-07-31T02:38:38;19.50;70.24
35085;SHT85;21267;51.032;6.998;2022-07-31T02:41:06;19.60;70.16
35085;SHT85;21267;51.032;6.998;2022-07-31T02:43:35;19.53;70.29
35085;SHT85;21267;51.032;6.998;2022-07-31T02:46:02;19.49;70.41
35085;SHT85;21267;51.032;6.998;2022-07-31T02:48:29;19.47;70.70
35085;SHT85;21267;51.032;6.998;2022-07-31T02:50:57;19.40;70.74
35085;SHT85;21267;51.032;6.998;2022-07-31T02:53:24;19.42;70.68
35085;SHT85;21267;51.032;6.998;2022-07-31T02:55:51;19.46;70.57
35085;SHT85;21267;51.032;6.998;2022-07-31T02:58:18;19.42;70.64
35085;SHT85;21267;51.032;6.998;2022-07-31T03:00:45;19.39;70.63
35085;SHT85;21267;51.032;6.998;2022-07-31T03:03:12;19.43;70.59
35085;SHT85;21267;51.032;6.998;2022-07-31T03:05:39;19.49;70.32
35085;SHT85;21267;51.032;6.998;2022-07-31T03:08:05;19.39;70.70
35085;SHT85;21267;51.032;6.998;2022-07-31T03:10:32;19.51;69.86
35085;SHT85;21267;51.032;6.998;2022-07-31T03:12:59;19.35;70.73
35085;SHT85;21267;51.032;6.998;2022-07-31T03:15:28;19.33;70.60
35085;SHT85;21267;51.032;6.998;2022-07-31T03:17:56;19.40;70.39
35085;SHT85;21267;51.032;6.998;2022-07-31T03:20:25;19.49;69.92
35085;SHT85;21267;51.032;6.998;2022-07-31T03:22:52;19.51;69.72
35085;SHT85;21267;51.032;6.998;2022-07-31T03:25:19;19.53;69.60
35085;SHT85;21267;51.032;6.998;2022-07-31T03:27:50;19.51;69.69
35085;SHT85;21267;51.032;6.998;2022-07-31T03:30:21;19.56;69.53
35085;SHT85;21267;51.032;6.998;2022-07-31T03:32:52;19.66;69.27
35085;SHT85;21267;51.032;6.998;2022-07-31T03:35:19;19.64;69.38
35085;SHT85;21267;51.032;6.998;2022-07-31T03:37:45;19.67;69.26
35085;SHT85;21267;51.032;6.998;2022-07-31T03:40:12;19.80;68.82
35085;SHT85;21267;51.032;6.998;2022-07-31T03:42:39;19.66;69.45
35085;SHT85;21267;51.032;6.998;2022-07-31T03:45:07;19.77;69.09
35085;SHT85;21267;51.032;6.998;2022-07-31T03:47:35;19.74;69.29
35085;SHT85;21267;51.032;6.998;2022-07-31T03:50:02;19.75;69.42
35085;SHT85;21267;51.032;6.998;2022-07-31T03:52:30;19.80;69.42
35085;SHT85;21267;51.032;6.998;2022-07-31T03:54:57;19.81;69.47
35085;SHT85;21267;51.032;6.998;2022-07-31T03:57:25;19.66;69.74
35085;SHT85;21267;51.032;6.998;2022-07-31T03:59:57;19.75;69.59
35085;SHT85;21267;51.032;6.998;2022-07-31T04:02:29;19.85;69.53
35085;SHT85;21267;51.032;6.998;2022-07-31T04:04:57;19.78;70.50
35085;SHT85;21267;51.032;6.998;2022-07-31T04:07:24;19.71;71.17
35085;SHT85;21267;51.032;6.998;2022-07-31T04:09:51;19.73;71.15
35085;SHT85;21267;51.032;6.998;2022-07-31T04:12:18;19.66;72.59
35085;SHT85;21267;51.032;6.998;2022-07-31T04:14:45;19.74;71.22
35085;SHT85;21267;51.032;6.998;2022-07-31T04:17:12;19.63;71.95
35085;SHT85;21267;51.032;6.998;2022-07-31T04:19:39;19.70;71.83
35085;SHT85;21267;51.032;6.998;2022-07-31T04:22:06;19.71;71.67
35085;SHT85;21267;51.032;6.998;2022-07-31T04:24:33;19.47;73.31
35085;SHT85;21267;51.032;6.998;2022-07-31T04:27:00;19.45;73.18
35085;SHT85;21267;51.032;6.998;2022-07-31T04:29:26;19.49;73.60
35085;SHT85;21267;51.032;6.998;2022-07-31T04:31:55;19.46;73.81
35085;SHT85;21267;51.032;6.998;2022-07-31T04:34:21;19.61;73.09
35085;SHT85;21267;51.032;6.998;2022-07-31T04:36:48;19.54;73.28
35085;SHT85;21267;51.032;6.998;2022-07-31T04:39:15;19.47;73.30
35085;SHT85;21267;51.032;6.998;2022-07-31T04:41:42;19.39;73.66
35085;SHT85;21267;51.032;6.998;2022-07-31T04:44:09;19.46;73.11
35085;SHT85;21267;51.032;6.998;2022-07-31T04:46:36;19.46;73.29
35085;SHT85;21267;51.032;6.998;2022-07-31T04:49:03;19.57;72.74
35085;SHT85;21267;51.032;6.998;2022-07-31T04:51:30;19.54;72.66
35085;SHT85;21267;51.032;6.998;2022-07-31T04:53:56;19.54;72.59
35085;SHT85;21267;51.032;6.998;2022-07-31T04:56:23;19.68;72.42
35085;SHT85;21267;51.032;6.998;2022-07-31T04:59:00;19.64;72.22
35085;SHT85;21267;51.032;6.998;2022-07-31T05:01:27;19.88;71.58
35085;SHT85;21267;51.032;6.998;2022-07-31T05:03:54;19.82;71.62
35085;SHT85;21267;51.032;6.998;2022-07-31T05:06:21;19.90;71.47
35085;SHT85;21267;51.032;6.998;2022-07-31T05:08:47;19.82;71.87
35085;SHT85;21267;51.032;6.998;2022-07-31T05:11:14;19.85;71.39
35085;SHT85;21267;51.032;6.998;2022-07-31T05:13:54;19.88;71.30
35085;SHT85;21267;51.032;6.998;2022-07-31T05:16:22;19.77;72.03
35085;SHT85;21267;51.032;6.998;2022-07-31T05:18:49;19.97;71.12
35085;SHT85;21267;51.032;6.998;2022-07-31T05:21:17;19.92;71.00
35085;SHT85;21267;51.032;6.998;2022-07-31T05:23:45;20.02;70.87
35085;SHT85;21267;51.032;6.998;2022-07-31T05:26:13;20.11;70.68
35085;SHT85;21267;51.032;6.998;2022-07-31T05:28:40;20.07;71.16
35085;SHT85;21267;51.032;6.998;2022-07-31T05:31:08;20.24;70.42
35085;SHT85;21267;51.032;6.998;2022-07-31T05:33:36;20.52;69.87
35085;SHT85;21267;51.032;6.998;2022-07-31T05:36:03;20.52;69.80
35085;SHT85;21267;51.032;6.998;2022-07-31T05:38:30;20.77;68.98
35085;SHT85;21267;51.032;6.998;2022-07-31T05:40:57;20.69;69.28
35085;SHT85;21267;51.032;6.998;2022-07-31T05:43:23;21.01;68.29
35085;SHT85;21267;51.032;6.998;2022-07-31T05:45:50;21.20;67.49
35085;SHT85;21267;51.032;6.998;2022-07-31T05:48:17;21.20;67.07
35085;SHT85;21267;51.032;6.998;2022-07-31T05:50:45;21.21;67.25
35085;SHT85;21267;51.032;6.998;2022-07-31T05:53:12;21.42;66.79
35085;SHT85;21267;51.032;6.998;2022-07-31T05:55:44;21.48;66.83
35085;SHT85;21267;51.032;6.998;2022-07-31T05:58:11;21.44;66.66
35085;SHT85;21267;51.032;6.998;2022-07-31T06:00:43;21.68;66.17
35085;SHT85;21267;51.032;6.998;2022-07-31T06:03:10;21.65;66.47
35085;SHT85;21267;51.032;6.998;2022-07-31T06:05:39;21.79;66.16
35085;SHT85;21267;51.032;6.998;2022-07-31T06:08:06;21.75;66.18
35085;SHT85;21267;51.032;6.998;2022-07-31T06:10:35;21.89;66.15
35085;SHT85;21267;51.032;6.998;2022-07-31T06:13:03;21.72;66.27
35085;SHT85;21267;51.032;6.998;2022-07-31T06:15:30;21.69;66.62
35085;SHT85;21267;51.032;6.998;2022-07-31T06:18:02;21.74;66.65
35085;SHT85;21267;51.032;6.998;2022-07-31T06:20:29;21.78;66.07
35085;SHT85;21267;51.032;6.998;2022-07-31T06:22:56;21.92;66.02
35085;SHT85;21267;51.032;6.998;2022-07-31T06:25:22;21.79;66.15
35085;SHT85;21267;51.032;6.998;2022-07-31T06:27:49;21.93;66.11
35085;SHT85;21267;51.032;6.998;2022-07-31T06:30:25;22.09;65.82
35085;SHT85;21267;51.032;6.998;2022-07-31T06:32:52;22.14;65.65
35085;SHT85;21267;51.032;6.998;2022-07-31T06:35:18;21.95;65.96
35085;SHT85;21267;51.032;6.998;2022-07-31T06:37:45;22.08;65.63
35085;SHT85;21267;51.032;6.998;2022-07-31T06:40:11;22.04;65.75
35085;SHT85;21267;51.032;6.998;2022-07-31T06:42:38;22.29;65.22
35085;SHT85;21267;51.032;6.998;2022-07-31T06:45:06;22.37;64.98
35085;SHT85;21267;51.032;6.998;2022-07-31T06:47:32;22.26;65.28
35085;SHT85;21267;51.032;6.998;2022-07-31T06:49:59;22.12;65.53
35085;SHT85;21267;51.032;6.998;2022-07-31T06:52:25;22.32;65.26
35085;SHT85;21267;51.032;6.998;2022-07-31T06:54:52;22.30;65.30
35085;SHT85;21267;51.032;6.998;2022-07-31T06:57:19;22.00;65.85
35085;SHT85;21267;51.032;6.998;2022-07-31T06:59:45;22.04;65.48
35085;SHT85;21267;51.032;6.998;2022-07-31T07:02:12;22.06;65.79
35085;SHT85;21267;51.032;6.998;2022-07-31T07:04:38;22.03;65.88
35085;SHT85;21267;51.032;6.998;2022-07-31T07:07:25;22.09;65.94
35085;SHT85;21267;51.032;6.998;2022-07-31T07:09:57;22.12;65.68
35085;SHT85;21267;51.032;6.998;2022-07-31T07:12:24;21.96;66.33
35085;SHT85;21267;51.032;6.998;2022-07-31T07:14:53;22.13;65.94
35085;SHT85;21267;51.032;6.998;2022-07-31T07:17:20;22.10;66.40
35085;SHT85;21267;51.032;6.998;2022-07-31T07:19:52;22.22;65.98
35085;SHT85;21267;51.032;6.998;2022-07-31T07:22:21;22.20;65.95
35085;SHT85;21267;51.032;6.998;2022-07-31T07:24:58;22.33;65.86
35085;SHT85;21267;51.032;6.998;2022-07-31T07:27:30;22.27;65.85
35085;SHT85;21267;51.032;6.998;2022-07-31T07:29:58;22.33;65.92
35085;SHT85;21267;51.032;6.998;2022-07-31T07:32:24;22.23;66.11
35085;SHT85;21267;51.032;6.998;2022-07-31T07:34:51;22.04;66.47
35085;SHT85;21267;51.032;6.998;2022-07-31T07:37:26;21.88;66.82
35085;SHT85;21267;51.032;6.998;2022-07-31T07:39:52;21.86;66.99
35085;SHT85;21267;51.032;6.998;2022-07-31T07:42:19;21.90;67.24
35085;SHT85;21267;51.032;6.998;2022-07-31T07:44:45;22.06;66.39
35085;SHT85;21267;51.032;6.998;2022-07-31T07:47:12;21.85;66.75
35085;SHT85;21267;51.032;6.998;2022-07-31T07:49:38;21.83;66.74
35085;SHT85;21267;51.032;6.998;2022-07-31T07:52:05;21.99;66.28
35085;SHT85;21267;51.032;6.998;2022-07-31T07:54:31;21.93;66.53
35085;SHT85;21267;51.032;6.998;2022-07-31T07:56:58;21.97;66.41
35085;SHT85;21267;51.032;6.998;2022-07-31T07:59:25;22.02;65.99
35085;SHT85;21267;51.032;6.998;2022-07-31T08:01:51;22.03;66.02
35085;SHT85;21267;51.032;6.998;2022-07-31T08:04:18;22.26;65.90
35085;SHT85;21267;51.032;6.998;2022-07-31T08:06:44;22.47;65.33
35085;SHT85;21267;51.032;6.998;2022-07-31T08:09:11;22.41;65.59
35085;SHT85;21267;51.032;6.998;2022-07-31T08:11:37;22.54;65.13
35085;SHT85;21267;51.032;6.998;2022-07-31T08:14:04;22.85;64.70
35085;SHT85;21267;51.032;6.998;2022-07-31T08:16:30;23.18;63.80
35085;SHT85;21267;51.032;6.998;2022-07-31T08:18:57;23.83;61.89
35085;SHT85;21267;51.032;6.998;2022-07-31T08:21:24;24.38;60.78
35085;SHT85;21267;51.032;6.998;2022-07-31T08:23:50;24.25;61.05
35085;SHT85;21267;51.032;6.998;2022-07-31T08:26:18;24.00;61.99
35085;SHT85;21267;51.032;6.998;2022-07-31T08:28:45;24.20;61.68
35085;SHT85;21267;51.032;6.998;2022-07-31T08:31:17;24.07;61.31
35085;SHT85;21267;51.032;6.998;2022-07-31T08:33:44;23.60;62.54
35085;SHT85;21267;51.032;6.998;2022-07-31T08:36:10;23.33;63.20
35085;SHT85;21267;51.032;6.998;2022-07-31T08:38:37;23.39;63.63
35085;SHT85;21267;51.032;6.998;2022-07-31T08:41:04;23.18;63.54
35085;SHT85;21267;51.032;6.998;2022-07-31T08:43:31;23.21;63.88
35085;SHT85;21267;51.032;6.998;2022-07-31T08:46:21;23.53;63.26
35085;SHT85;21267;51.032;6.998;2022-07-31T08:48:49;23.52;63.54
35085;SHT85;21267;51.032;6.998;2022-07-31T08:51:22;23.47;64.01
35085;SHT85;21267;51.032;6.998;2022-07-31T08:53:52;24.01;63.16
35085;SHT85;21267;51.032;6.998;2022-07-31T08:56:19;23.47;63.29
35085;SHT85;21267;51.032;6.998;2022-07-31T08:58:46;23.63;62.96
35085;SHT85;21267;51.032;6.998;2022-07-31T09:01:13;23.39;63.89
35085;SHT85;21267;51.032;6.998;2022-07-31T09:03:40;23.70;63.76
35085;SHT85;21267;51.032;6.998;2022-07-31T09:06:07;23.86;63.59
35085;SHT85;21267;51.032;6.998;2022-07-31T09:08:35;23.90;62.94
35085;SHT85;21267;51.032;6.998;2022-07-31T09:11:07;24.17;62.75
35085;SHT85;21267;51.032;6.998;2022-07-31T09:13:34;24.53;61.53
35085;SHT85;21267;51.032;6.998;2022-07-31T09:16:01;24.47;61.65
35085;SHT85;21267;51.032;6.998;2022-07-31T09:18:28;24.22;61.99
35085;SHT85;21267;51.032;6.998;2022-07-31T09:21:04;23.91;63.28
35085;SHT85;21267;51.032;6.998;2022-07-31T09:23:31;24.14;62.66
35085;SHT85;21267;51.032;6.998;2022-07-31T09:25:59;24.02;63.04
35085;SHT85;21267;51.032;6.998;2022-07-31T09:31:02;24.78;61.55
35085;SHT85;21267;51.032;6.998;2022-07-31T09:33:29;25.04;60.47
35085;SHT85;21267;51.032;6.998;2022-07-31T09:35:57;25.38;59.57
35085;SHT85;21267;51.032;6.998;2022-07-31T09:38:37;25.04;60.51
35085;SHT85;21267;51.032;6.998;2022-07-31T09:41:10;25.24;60.07
35085;SHT85;21267;51.032;6.998;2022-07-31T09:44:02;25.17;60.61
35085;SHT85;21267;51.032;6.998;2022-07-31T09:46:44;25.19;60.51
35085;SHT85;21267;51.032;6.998;2022-07-31T09:49:11;25.94;59.14
35085;SHT85;21267;51.032;6.998;2022-07-31T09:51:39;25.60;58.51
35085;SHT85;21267;51.032;6.998;2022-07-31T09:54:06;25.16;59.67
35085;SHT85;21267;51.032;6.998;2022-07-31T09:56:34;25.12;60.14
35085;SHT85;21267;51.032;6.998;2022-07-31T09:59:01;25.61;58.97
35085;SHT85;21267;51.032;6.998;2022-07-31T10:01:29;25.48;59.57
35085;SHT85;21267;51.032;6.998;2022-07-31T10:03:59;24.99;60.45
35085;SHT85;21267;51.032;6.998;2022-07-31T10:06:27;25.16;59.85
35085;SHT85;21267;51.032;6.998;2022-07-31T10:08:57;25.03;60.13
35085;SHT85;21267;51.032;6.998;2022-07-31T10:11:24;26.23;57.87
35085;SHT85;21267;51.032;6.998;2022-07-31T10:13:55;26.08;57.50
35085;SHT85;21267;51.032;6.998;2022-07-31T10:16:25;25.48;59.07
35085;SHT85;21267;51.032;6.998;2022-07-31T10:18:58;25.47;59.73
35085;SHT85;21267;51.032;6.998;2022-07-31T10:21:33;25.51;59.53
35085;SHT85;21267;51.032;6.998;2022-07-31T10:24:02;25.57;59.62
35085;SHT85;21267;51.032;6.998;2022-07-31T10:26:29;25.88;59.14
35085;SHT85;21267;51.032;6.998;2022-07-31T10:29:16;25.82;58.64
35085;SHT85;21267;51.032;6.998;2022-07-31T10:31:44;26.11;57.95
35085;SHT85;21267;51.032;6.998;2022-07-31T10:34:13;25.85;58.93
35085;SHT85;21267;51.032;6.998;2022-07-31T10:36:43;26.11;57.80
35085;SHT85;21267;51.032;6.998;2022-07-31T10:39:15;26.40;57.48
35085;SHT85;21267;51.032;6.998;2022-07-31T10:41:54;26.52;56.57
35085;SHT85;21267;51.032;6.998;2022-07-31T10:44:34;26.28;57.19
35085;SHT85;21267;51.032;6.998;2022-07-31T10:47:14;26.31;57.17
35085;SHT85;21267;51.032;6.998;2022-07-31T10:49:43;26.49;56.70
35085;SHT85;21267;51.032;6.998;2022-07-31T10:52:10;26.22;56.98
35085;SHT85;21267;51.032;6.998;2022-07-31T10:54:45;27.48;54.58
35085;SHT85;21267;51.032;6.998;2022-07-31T10:57:23;28.12;51.97
35085;SHT85;21267;51.032;6.998;2022-07-31T10:59:50;28.00;52.51
35085;SHT85;21267;51.032;6.998;2022-07-31T11:02:35;27.49;53.58
35085;SHT85;21267;51.032;6.998;2022-07-31T11:05:07;27.61;53.56
35085;SHT85;21267;51.032;6.998;2022-07-31T11:07:34;27.43;54.20
35085;SHT85;21267;51.032;6.998;2022-07-31T11:12:38;28.07;52.78
35085;SHT85;21267;51.032;6.998;2022-07-31T11:15:20;28.14;52.52
35085;SHT85;21267;51.032;6.998;2022-07-31T11:17:47;27.66;53.62
35085;SHT85;21267;51.032;6.998;2022-07-31T11:20:34;27.24;54.46
35085;SHT85;21267;51.032;6.998;2022-07-31T11:23:03;27.04;54.87
35085;SHT85;21267;51.032;6.998;2022-07-31T11:25:34;26.87;55.47
35085;SHT85;21267;51.032;6.998;2022-07-31T11:28:18;26.73;55.88
35085;SHT85;21267;51.032;6.998;2022-07-31T11:30:51;26.43;56.26
35085;SHT85;21267;51.032;6.998;2022-07-31T11:38:42;26.52;56.07
35085;SHT85;21267;51.032;6.998;2022-07-31T11:41:12;25.95;57.56
35085;SHT85;21267;51.032;6.998;2022-07-31T11:43:44;26.50;56.48
35085;SHT85;21267;51.032;6.998;2022-07-31T11:46:13;26.71;55.75
35085;SHT85;21267;51.032;6.998;2022-07-31T11:48:44;26.59;55.71
35085;SHT85;21267;51.032;6.998;2022-07-31T11:51:16;26.54;56.16
35085;SHT85;21267;51.032;6.998;2022-07-31T11:53:44;26.88;55.14
35085;SHT85;21267;51.032;6.998;2022-07-31T11:56:11;26.39;55.63
35085;SHT85;21267;51.032;6.998;2022-07-31T11:58:46;26.37;55.59
35085;SHT85;21267;51.032;6.998;2022-07-31T12:01:13;26.80;54.94
35085;SHT85;21267;51.032;6.998;2022-07-31T12:03:40;26.81;55.28
35085;SHT85;21267;51.032;6.998;2022-07-31T12:06:08;27.79;53.50
35085;SHT85;21267;51.032;6.998;2022-07-31T12:08:36;28.00;53.17
35085;SHT85;21267;51.032;6.998;2022-07-31T12:11:04;28.34;52.13
35085;SHT85;21267;51.032;6.998;2022-07-31T12:13:32;29.14;50.85
35085;SHT85;21267;51.032;6.998;2022-07-31T12:16:09;29.02;50.56
35085;SHT85;21267;51.032;6.998;2022-07-31T12:18:56;28.78;51.73
35085;SHT85;21267;51.032;6.998;2022-07-31T12:21:36;28.77;51.56
35085;SHT85;21267;51.032;6.998;2022-07-31T12:24:13;28.36;52.30
35085;SHT85;21267;51.032;6.998;2022-07-31T12:26:43;27.79;53.13
35085;SHT85;21267;51.032;6.998;2022-07-31T12:29:14;27.49;53.83
35085;SHT85;21267;51.032;6.998;2022-07-31T12:31:52;27.22;54.27
35085;SHT85;21267;51.032;6.998;2022-07-31T12:37:02;27.18;54.83
35085;SHT85;21267;51.032;6.998;2022-07-31T12:39:35;27.11;55.24
35085;SHT85;21267;51.032;6.998;2022-07-31T12:42:27;26.74;56.27
35085;SHT85;21267;51.032;6.998;2022-07-31T12:44:58;26.70;56.50
35085;SHT85;21267;51.032;6.998;2022-07-31T12:47:46;27.01;55.98
35085;SHT85;21267;51.032;6.998;2022-07-31T12:50:22;26.95;56.49
35085;SHT85;21267;51.032;6.998;2022-07-31T12:52:49;27.24;55.93
35085;SHT85;21267;51.032;6.998;2022-07-31T12:55:16;27.20;55.50
35085;SHT85;21267;51.032;6.998;2022-07-31T12:57:43;27.49;54.93
35085;SHT85;21267;51.032;6.998;2022-07-31T13:00:19;27.35;55.19
35085;SHT85;21267;51.032;6.998;2022-07-31T13:02:49;27.65;54.63
35085;SHT85;21267;51.032;6.998;2022-07-31T13:05:15;27.28;55.44
35085;SHT85;21267;51.032;6.998;2022-07-31T13:07:42;27.35;55.27
35085;SHT85;21267;51.032;6.998;2022-07-31T13:10:09;27.59;54.85
35085;SHT85;21267;51.032;6.998;2022-07-31T13:12:48;27.58;54.73
35085;SHT85;21267;51.032;6.998;2022-07-31T13:15:18;27.35;55.29
35085;SHT85;21267;51.032;6.998;2022-07-31T13:17:48;27.25;55.78
35085;SHT85;21267;51.032;6.998;2022-07-31T13:20:16;27.11;56.49
35085;SHT85;21267;51.032;6.998;2022-07-31T13:22:42;27.18;56.49
35085;SHT85;21267;51.032;6.998;2022-07-31T13:25:09;26.87;57.05
35085;SHT85;21267;51.032;6.998;2022-07-31T13:27:36;27.30;56.20
35085;SHT85;21267;51.032;6.998;2022-07-31T13:30:03;27.01;56.37
35085;SHT85;21267;51.032;6.998;2022-07-31T13:32:29;27.02;56.32
35085;SHT85;21267;51.032;6.998;2022-07-31T13:34:57;26.94;57.02
35085;SHT85;21267;51.032;6.998;2022-07-31T13:37:43;27.11;56.61
35085;SHT85;21267;51.032;6.998;2022-07-31T13:40:12;27.08;57.01
35085;SHT85;21267;51.032;6.998;2022-07-31T13:42:39;27.22;56.76
35085;SHT85;21267;51.032;6.998;2022-07-31T13:45:06;27.10;57.03
35085;SHT85;21267;51.032;6.998;2022-07-31T13:47:34;27.76;55.99
35085;SHT85;21267;51.032;6.998;2022-07-31T13:50:17;27.39;56.37
35085;SHT85;21267;51.032;6.998;2022-07-31T13:52:44;27.25;56.59
35085;SHT85;21267;51.032;6.998;2022-07-31T13:55:11;27.14;56.82
35085;SHT85;21267;51.032;6.998;2022-07-31T13:57:37;27.14;56.68
35085;SHT85;21267;51.032;6.998;2022-07-31T14:00:04;27.21;56.60
35085;SHT85;21267;51.032;6.998;2022-07-31T14:02:31;27.32;56.40
35085;SHT85;21267;51.032;6.998;2022-07-31T14:04:58;27.05;56.67
35085;SHT85;21267;51.032;6.998;2022-07-31T14:07:25;26.80;57.63
35085;SHT85;21267;51.032;6.998;2022-07-31T14:10:11;26.83;57.93
35085;SHT85;21267;51.032;6.998;2022-07-31T14:12:45;26.52;58.64
35085;SHT85;21267;51.032;6.998;2022-07-31T14:15:11;26.53;58.77
35085;SHT85;21267;51.032;6.998;2022-07-31T14:17:38;26.53;58.77
35085;SHT85;21267;51.032;6.998;2022-07-31T14:20:05;26.53;58.72
35085;SHT85;21267;51.032;6.998;2022-07-31T14:22:32;26.71;58.22
35085;SHT85;21267;51.032;6.998;2022-07-31T14:24:59;26.76;58.02
35085;SHT85;21267;51.032;6.998;2022-07-31T14:27:25;26.77;57.70
35085;SHT85;21267;51.032;6.998;2022-07-31T14:29:55;26.62;57.97
35085;SHT85;21267;51.032;6.998;2022-07-31T14:32:21;26.60;57.96
35085;SHT85;21267;51.032;6.998;2022-07-31T14:34:48;26.91;57.15
35085;SHT85;21267;51.032;6.998;2022-07-31T14:37:15;27.10;56.83
35085;SHT85;21267;51.032;6.998;2022-07-31T14:39:44;27.08;56.66
35085;SHT85;21267;51.032;6.998;2022-07-31T14:42:11;27.00;56.90
35085;SHT85;21267;51.032;6.998;2022-07-31T14:44:39;27.04;56.92
35085;SHT85;21267;51.032;6.998;2022-07-31T14:47:09;27.08;56.73
35085;SHT85;21267;51.032;6.998;2022-07-31T14:49:37;27.22;56.60
35085;SHT85;21267;51.032;6.998;2022-07-31T14:52:23;27.28;56.18
35085;SHT85;21267;51.032;6.998;2022-07-31T14:54:52;27.48;55.83
35085;SHT85;21267;51.032;6.998;2022-07-31T14:57:20;27.66;55.64
35085;SHT85;21267;51.032;6.998;2022-07-31T14:59:48;27.82;55.33
35085;SHT85;21267;51.032;6.998;2022-07-31T15:02:17;28.01;54.80
35085;SHT85;21267;51.032;6.998;2022-07-31T15:04:48;28.06;54.56
35085;SHT85;21267;51.032;6.998;2022-07-31T15:07:18;28.00;54.76
35085;SHT85;21267;51.032;6.998;2022-07-31T15:10:07;27.85;55.04
35085;SHT85;21267;51.032;6.998;2022-07-31T15:12:36;27.73;55.18
35085;SHT85;21267;51.032;6.998;2022-07-31T15:15:03;27.76;55.20
35085;SHT85;21267;51.032;6.998;2022-07-31T15:17:33;27.93;54.88
35085;SHT85;21267;51.032;6.998;2022-07-31T15:20:00;27.90;55.02
35085;SHT85;21267;51.032;6.998;2022-07-31T15:22:26;27.89;54.84
35085;SHT85;21267;51.032;6.998;2022-07-31T15:24:53;27.72;55.09
35085;SHT85;21267;51.032;6.998;2022-07-31T15:27:20;27.68;55.03
35085;SHT85;21267;51.032;6.998;2022-07-31T15:29:47;27.94;54.83
35085;SHT85;21267;51.032;6.998;2022-07-31T15:32:36;28.82;53.27
35085;SHT85;21267;51.032;6.998;2022-07-31T15:35:05;28.19;54.41
35085;SHT85;21267;51.032;6.998;2022-07-31T15:37:33;28.14;54.44
35085;SHT85;21267;51.032;6.998;2022-07-31T15:40:05;27.86;54.97
35085;SHT85;21267;51.032;6.998;2022-07-31T15:42:34;27.55;55.52
35085;SHT85;21267;51.032;6.998;2022-07-31T15:45:08;27.59;55.62
35085;SHT85;21267;51.032;6.998;2022-07-31T15:47:35;27.51;55.67
35085;SHT85;21267;51.032;6.998;2022-07-31T15:50:03;27.46;56.01
35085;SHT85;21267;51.032;6.998;2022-07-31T15:52:30;27.75;55.63
35085;SHT85;21267;51.032;6.998;2022-07-31T15:54:57;27.76;55.25
35085;SHT85;21267;51.032;6.998;2022-07-31T15:57:23;27.65;55.31
35085;SHT85;21267;51.032;6.998;2022-07-31T15:59:51;27.58;55.37
35085;SHT85;21267;51.032;6.998;2022-07-31T16:02:22;27.68;55.40
35085;SHT85;21267;51.032;6.998;2022-07-31T16:04:51;27.51;55.70